createdAt,value
2019-01-19T00:00:04.370Z,-4.00
2019-01-19T00:02:36.214Z,-3.90
2019-01-19T00:05:25.909Z,-3.90
2019-01-19T00:08:06.000Z,-3.90
2019-01-19T00:10:40.792Z,-3.80
2019-01-19T00:13:18.405Z,-3.90
2019-01-19T00:16:16.360Z,-4.00
2019-01-19T00:18:59.815Z,-4.20
2019-01-19T00:21:57.040Z,-4.20
2019-01-19T00:24:32.157Z,-4.20
2019-01-19T00:27:14.210Z,-4.00
2019-01-19T00:30:21.652Z,-3.90
2019-01-19T00:33:04.900Z,-3.90
2019-01-19T00:35:57.859Z,-3.90
2019-01-19T00:38:47.508Z,-4.00
2019-01-19T00:41:39.161Z,-4.00
2019-01-19T00:44:16.239Z,-3.90
2019-01-19T00:46:48.057Z,-3.90
2019-01-19T00:49:18.724Z,-3.80
2019-01-19T00:51:59.091Z,-3.80
2019-01-19T00:54:30.845Z,-3.90
2019-01-19T00:57:14.595Z,-3.90
2019-01-19T00:59:45.869Z,-3.80
2019-01-19T01:02:33.874Z,-3.90
2019-01-19T01:05:11.575Z,-3.90
2019-01-19T01:08:01.543Z,-4.00
2019-01-19T01:10:44.780Z,-4.00
2019-01-19T01:13:23.092Z,-4.00
2019-01-19T01:15:54.911Z,-4.00
2019-01-19T01:18:32.570Z,-3.90
2019-01-19T01:21:04.287Z,-4.10
2019-01-19T01:23:45.380Z,-4.30
2019-01-19T01:26:38.436Z,-4.40
2019-01-19T01:29:28.421Z,-4.30
2019-01-19T01:32:15.983Z,-4.40
2019-01-19T01:35:02.659Z,-4.40
2019-01-19T01:37:40.359Z,-4.30
2019-01-19T01:40:24.199Z,-4.30
2019-01-19T01:43:02.078Z,-4.30
2019-01-19T01:45:56.620Z,-4.40
2019-01-19T01:48:31.707Z,-4.70
2019-01-19T01:51:03.806Z,-4.70
2019-01-19T01:53:35.650Z,-4.80
2019-01-19T01:56:06.411Z,-4.60
2019-01-19T01:58:44.190Z,-4.60
2019-01-19T02:01:20.656Z,-4.60
2019-01-19T02:03:57.252Z,-4.50
2019-01-19T02:06:34.612Z,-4.50
2019-01-19T02:09:17.230Z,-4.40
2019-01-19T02:12:01.374Z,-4.40
2019-01-19T02:14:36.100Z,-4.40
2019-01-19T02:17:15.026Z,-4.40
2019-01-19T02:19:49.862Z,-4.40
2019-01-19T02:22:24.893Z,-4.40
2019-01-19T02:25:11.804Z,-4.60
2019-01-19T02:27:55.033Z,-4.70
2019-01-19T02:30:42.048Z,-4.70
2019-01-19T02:33:22.920Z,-4.70
2019-01-19T02:36:07.377Z,-4.70
2019-01-19T02:38:52.058Z,-4.70
2019-01-19T02:41:47.348Z,-4.70
2019-01-19T02:44:27.585Z,-4.70
2019-01-19T02:47:11.422Z,-4.60
2019-01-19T02:50:10.851Z,-4.60
2019-01-19T02:52:45.587Z,-4.70
2019-01-19T02:55:42.236Z,-4.70
2019-01-19T02:58:16.844Z,-4.70
2019-01-19T03:01:05.188Z,-4.80
2019-01-19T03:03:59.986Z,-4.90
2019-01-19T03:07:01.445Z,-4.90
2019-01-19T03:09:38.938Z,-4.90
2019-01-19T03:12:17.047Z,-5.00
2019-01-19T03:15:05.387Z,-5.00
2019-01-19T03:17:47.346Z,-4.80
2019-01-19T03:20:33.831Z,-4.50
2019-01-19T03:23:14.863Z,-4.50
2019-01-19T03:26:07.715Z,-4.40
2019-01-19T03:28:43.478Z,-4.30
2019-01-19T03:31:24.289Z,-4.30
2019-01-19T03:34:08.264Z,-4.40
2019-01-19T03:36:42.700Z,-4.40
2019-01-19T03:42:49.812Z,-4.20
2019-01-19T03:45:45.917Z,-4.10
2019-01-19T03:48:49.643Z,-4.20
2019-01-19T03:51:30.421Z,-4.10
2019-01-19T03:54:13.986Z,-4.10
2019-01-19T03:56:54.817Z,-4.20
2019-01-19T03:59:27.191Z,-4.30
2019-01-19T04:02:15.742Z,-4.30
2019-01-19T04:04:56.508Z,-4.40
2019-01-19T04:07:46.498Z,-4.30
2019-01-19T04:10:36.377Z,-4.30
2019-01-19T04:13:24.726Z,-4.20
2019-01-19T04:16:08.520Z,-4.20
2019-01-19T04:18:46.597Z,-4.20
2019-01-19T04:21:33.673Z,-4.30
2019-01-19T04:24:14.538Z,-4.30
2019-01-19T04:26:45.704Z,-4.40
2019-01-19T04:29:14.799Z,-4.40
2019-01-19T04:31:43.581Z,-4.40
2019-01-19T04:34:12.570Z,-4.50
2019-01-19T04:36:41.559Z,-4.40
2019-01-19T04:39:11.159Z,-4.40
2019-01-19T04:41:40.073Z,-4.30
2019-01-19T04:44:09.984Z,-4.30
2019-01-19T04:46:38.873Z,-4.30
2019-01-19T04:49:09.199Z,-4.30
2019-01-19T04:51:38.093Z,-4.40
2019-01-19T04:54:06.978Z,-4.40
2019-01-19T04:56:36.482Z,-4.50
2019-01-19T04:59:05.252Z,-4.50
2019-01-19T05:01:34.059Z,-4.50
2019-01-19T05:04:02.952Z,-4.50
2019-01-19T05:06:31.844Z,-4.50
2019-01-19T05:09:00.717Z,-4.60
2019-01-19T05:11:29.839Z,-4.60
2019-01-19T05:13:58.691Z,-4.70
2019-01-19T05:16:27.487Z,-4.70
2019-01-19T05:18:56.429Z,-4.60
2019-01-19T05:21:25.520Z,-4.70
2019-01-19T05:23:57.152Z,-4.90
2019-01-19T05:26:25.938Z,-5.00
2019-01-19T05:28:54.639Z,-5.00
2019-01-19T05:31:23.694Z,-5.00
2019-01-19T05:33:52.915Z,-4.90
2019-01-19T05:36:21.705Z,-4.80
2019-01-19T05:38:50.475Z,-4.80
2019-01-19T05:41:19.488Z,-4.70
2019-01-19T05:43:48.206Z,-4.70
2019-01-19T05:46:21.411Z,-4.70
2019-01-19T05:48:47.364Z,-4.70
2019-01-19T05:51:16.177Z,-4.60
2019-01-19T05:53:45.065Z,-4.60
2019-01-19T05:56:14.054Z,-4.60
2019-01-19T05:58:42.947Z,-4.60
2019-01-19T06:01:14.301Z,-4.60
2019-01-19T06:03:43.084Z,-4.70
2019-01-19T06:06:12.176Z,-4.80
2019-01-19T06:08:41.083Z,-4.90
2019-01-19T06:11:09.959Z,-4.80
2019-01-19T06:13:38.821Z,-4.80
2019-01-19T06:16:07.619Z,-4.80
2019-01-19T06:18:37.348Z,-4.80
2019-01-19T06:21:07.775Z,-4.80
2019-01-19T06:23:36.875Z,-4.70
2019-01-19T06:26:05.764Z,-4.70
2019-01-19T06:28:34.547Z,-4.70
2019-01-19T06:31:03.341Z,-4.70
2019-01-19T06:33:37.595Z,-4.80
2019-01-19T06:36:06.859Z,-4.80
2019-01-19T06:38:35.553Z,-4.80
2019-01-19T06:41:05.451Z,-4.80
2019-01-19T06:43:34.351Z,-4.80
2019-01-19T06:46:03.212Z,-4.90
2019-01-19T06:48:32.535Z,-4.90
2019-01-19T06:51:03.298Z,-4.90
2019-01-19T06:53:33.567Z,-4.90
2019-01-19T06:56:02.485Z,-5.00
2019-01-19T06:58:31.379Z,-5.00
2019-01-19T07:01:00.263Z,-5.10
2019-01-19T07:03:29.157Z,-5.10
2019-01-19T07:05:58.049Z,-5.00
2019-01-19T07:08:28.984Z,-5.10
2019-01-19T07:10:57.873Z,-5.20
2019-01-19T07:13:26.767Z,-5.30
2019-01-19T07:15:55.861Z,-5.30
2019-01-19T07:18:24.753Z,-5.30
2019-01-19T07:20:53.618Z,-5.20
2019-01-19T07:23:22.472Z,-5.20
2019-01-19T07:25:51.422Z,-5.30
2019-01-19T07:28:20.101Z,-5.20
2019-01-19T07:30:49.410Z,-5.30
2019-01-19T07:33:18.156Z,-5.30
2019-01-19T07:35:46.982Z,-5.30
2019-01-19T07:38:20.584Z,-5.30
2019-01-19T07:40:51.714Z,-5.20
2019-01-19T07:43:26.973Z,-5.10
2019-01-19T07:45:51.560Z,-5.10
2019-01-19T07:48:20.439Z,-5.10
2019-01-19T07:50:49.343Z,-5.00
2019-01-19T07:53:18.148Z,-5.10
2019-01-19T07:55:50.503Z,-5.10
2019-01-19T07:58:19.284Z,-5.10
2019-01-19T08:00:50.123Z,-5.10
2019-01-19T08:03:19.016Z,-5.00
2019-01-19T08:05:47.908Z,-4.80
2019-01-19T08:08:16.604Z,-4.70
2019-01-19T08:10:45.461Z,-4.60
2019-01-19T08:13:15.781Z,-4.50
2019-01-19T08:15:44.580Z,-4.30
2019-01-19T08:18:16.252Z,-4.20
2019-01-19T08:20:45.017Z,-4.00
2019-01-19T08:23:14.031Z,-3.90
2019-01-19T08:25:43.145Z,-3.70
2019-01-19T08:28:13.576Z,-3.60
2019-01-19T08:30:42.535Z,-3.40
2019-01-19T08:33:11.445Z,-3.30
2019-01-19T08:35:44.217Z,-3.20
2019-01-19T08:38:13.314Z,-3.10
2019-01-19T08:40:42.615Z,-2.90
2019-01-19T08:43:22.265Z,-2.70
2019-01-19T08:45:51.435Z,-2.60
2019-01-19T08:48:22.671Z,-2.40
2019-01-19T08:50:54.767Z,-2.20
2019-01-19T08:53:23.659Z,-2.10
2019-01-19T08:55:52.549Z,-2.00
2019-01-19T08:58:21.447Z,-2.00
2019-01-19T09:00:51.769Z,-1.80
2019-01-19T09:03:20.636Z,-1.60
2019-01-19T09:05:56.815Z,-1.60
2019-01-19T09:08:25.913Z,-1.50
2019-01-19T09:10:54.802Z,-1.50
2019-01-19T09:13:23.675Z,-1.50
2019-01-19T09:15:54.623Z,-1.30
2019-01-19T09:18:26.699Z,-1.20
2019-01-19T09:20:55.582Z,-1.20
2019-01-19T09:23:29.930Z,-1.10
2019-01-19T09:25:58.879Z,-1.00
2019-01-19T09:28:27.762Z,-0.80
2019-01-19T09:30:56.579Z,-0.50
2019-01-19T09:33:25.567Z,0.00
2019-01-19T09:35:57.235Z,0.30
2019-01-19T09:38:28.649Z,0.60
2019-01-19T09:40:57.646Z,0.80
2019-01-19T09:43:26.419Z,0.80
2019-01-19T09:45:58.608Z,0.70
2019-01-19T09:48:27.621Z,0.60
2019-01-19T09:50:59.043Z,0.50
2019-01-19T09:53:27.854Z,0.40
2019-01-19T09:55:56.746Z,0.30
2019-01-19T09:58:25.719Z,0.40
2019-01-19T10:01:00.568Z,0.70
2019-01-19T10:03:30.985Z,1.00
2019-01-19T10:05:59.779Z,1.40
2019-01-19T10:08:28.672Z,1.80
2019-01-19T10:10:58.778Z,2.00
2019-01-19T10:13:27.581Z,2.20
2019-01-19T10:16:05.912Z,2.50
2019-01-19T10:18:34.760Z,2.60
2019-01-19T10:21:03.657Z,2.70
2019-01-19T10:23:33.052Z,2.70
2019-01-19T10:26:01.812Z,3.00
2019-01-19T10:28:30.582Z,3.30
2019-01-19T10:31:02.513Z,3.50
2019-01-19T10:33:34.268Z,3.70
2019-01-19T10:36:03.263Z,3.40
2019-01-19T10:38:32.154Z,3.30
2019-01-19T10:41:03.833Z,2.50
2019-01-19T10:43:32.680Z,2.20
2019-01-19T10:46:01.499Z,2.10
2019-01-19T10:48:30.789Z,2.00
2019-01-19T10:50:59.549Z,2.10
2019-01-19T10:53:28.627Z,2.10
2019-01-19T10:55:57.331Z,2.60
2019-01-19T11:01:21.151Z,3.50
2019-01-19T11:03:49.882Z,3.50
2019-01-19T11:06:22.451Z,3.20
2019-01-19T11:08:51.306Z,2.70
2019-01-19T11:11:21.829Z,2.10
2019-01-19T11:13:50.510Z,1.90
2019-01-19T11:16:19.406Z,1.40
2019-01-19T11:18:51.099Z,1.40
2019-01-19T11:21:19.794Z,1.50
2019-01-19T11:23:49.327Z,1.50
2019-01-19T11:26:18.554Z,1.50
2019-01-19T11:28:47.319Z,1.50
2019-01-19T11:31:16.215Z,1.50
2019-01-19T11:33:45.099Z,1.50
2019-01-19T11:36:13.909Z,1.50
2019-01-19T11:38:42.804Z,2.00
2019-01-19T11:41:12.591Z,2.00
2019-01-19T11:43:44.267Z,2.00
2019-01-19T11:46:13.040Z,2.10
2019-01-19T11:48:42.867Z,2.30
2019-01-19T11:51:15.224Z,2.00
2019-01-19T11:53:44.264Z,1.80
2019-01-19T11:56:16.031Z,1.80
2019-01-19T11:58:49.711Z,1.80
2019-01-19T12:01:18.492Z,1.80
2019-01-19T12:03:47.476Z,1.80
2019-01-19T12:06:18.914Z,1.80
2019-01-19T12:08:48.598Z,1.90
2019-01-19T12:11:17.419Z,2.00
2019-01-19T12:13:46.165Z,1.90
2019-01-19T12:16:14.930Z,2.00
2019-01-19T12:18:48.619Z,2.00
2019-01-19T12:21:21.513Z,2.10
2019-01-19T12:23:51.913Z,2.00
2019-01-19T12:26:20.802Z,2.20
2019-01-19T12:28:49.584Z,2.70
2019-01-19T12:31:18.345Z,3.00
2019-01-19T12:33:47.775Z,3.40
2019-01-19T12:36:16.652Z,3.30
2019-01-19T12:38:45.450Z,2.90
2019-01-19T12:41:15.890Z,2.70
2019-01-19T12:43:51.759Z,2.50
2019-01-19T12:46:20.684Z,2.30
2019-01-19T12:48:49.470Z,2.00
2019-01-19T12:51:19.338Z,1.80
2019-01-19T12:53:48.442Z,1.60
2019-01-19T12:56:19.064Z,1.70
2019-01-19T12:58:48.801Z,1.70
2019-01-19T13:01:17.564Z,1.90
2019-01-19T13:03:46.391Z,2.00
2019-01-19T13:06:18.400Z,2.10
2019-01-19T13:08:49.454Z,2.30
2019-01-19T13:11:39.323Z,2.70
2019-01-19T13:14:08.432Z,3.40
2019-01-19T13:16:59.046Z,3.50
2019-01-19T13:19:31.079Z,3.40
2019-01-19T13:22:30.580Z,3.60
2019-01-19T13:25:27.263Z,3.40
2019-01-19T13:28:17.129Z,3.80
2019-01-19T13:31:05.886Z,4.30
2019-01-19T13:34:01.945Z,4.00
2019-01-19T13:36:38.961Z,3.60
2019-01-19T13:39:14.855Z,4.20
2019-01-19T13:41:55.707Z,4.50
2019-01-19T13:44:36.116Z,4.40
2019-01-19T13:47:24.402Z,4.60
2019-01-19T13:50:07.889Z,4.40
2019-01-19T13:52:45.371Z,4.50
2019-01-19T13:55:19.729Z,4.60
2019-01-19T13:58:11.480Z,4.30
2019-01-19T14:00:55.030Z,4.40
2019-01-19T14:03:32.535Z,4.10
2019-01-19T14:06:08.974Z,4.00
2019-01-19T14:08:56.499Z,3.90
2019-01-19T14:12:03.605Z,3.10
2019-01-19T14:14:43.949Z,2.50
2019-01-19T14:17:37.002Z,2.50
2019-01-19T14:20:46.031Z,2.50
2019-01-19T14:23:19.783Z,2.50
2019-01-19T14:26:16.565Z,2.30
2019-01-19T14:29:16.884Z,2.00
2019-01-19T14:32:06.596Z,1.60
2019-01-19T14:34:38.570Z,1.60
2019-01-19T14:37:12.969Z,1.80
2019-01-19T14:39:56.629Z,1.80
2019-01-19T14:42:43.217Z,1.80
2019-01-19T14:45:20.813Z,2.00
2019-01-19T14:47:55.315Z,2.10
2019-01-19T14:50:47.281Z,2.30
2019-01-19T14:53:34.195Z,2.50
2019-01-19T14:56:23.657Z,2.20
2019-01-19T14:59:13.346Z,2.50
2019-01-19T15:02:05.271Z,2.10
2019-01-19T15:04:48.569Z,1.80
2019-01-19T15:07:29.214Z,1.40
2019-01-19T15:10:19.360Z,1.20
2019-01-19T15:12:59.835Z,1.20
2019-01-19T15:15:50.728Z,1.10
2019-01-19T15:18:48.357Z,1.10
2019-01-19T15:21:26.090Z,1.00
2019-01-19T15:24:10.446Z,0.80
2019-01-19T15:26:51.402Z,0.70
2019-01-19T15:29:41.400Z,0.60
2019-01-19T15:32:25.065Z,0.30
2019-01-19T15:35:11.988Z,0.20
2019-01-19T15:37:52.730Z,0.00
2019-01-19T15:40:42.583Z,-0.20
2019-01-19T15:43:58.599Z,-0.30
2019-01-19T15:47:01.895Z,-0.30
2019-01-19T15:49:53.298Z,-0.40
2019-01-19T15:52:40.008Z,-0.40
2019-01-19T15:55:17.830Z,-0.50
2019-01-19T15:58:07.807Z,-0.60
2019-01-19T16:00:54.414Z,-0.60
2019-01-19T16:03:47.318Z,-0.60
2019-01-19T16:06:35.919Z,-0.70
2019-01-19T16:09:22.823Z,-0.70
2019-01-19T16:11:57.458Z,-0.70
2019-01-19T16:14:47.871Z,-0.70
2019-01-19T16:17:28.406Z,-0.80
2019-01-19T16:20:12.034Z,-0.80
2019-01-19T16:22:48.099Z,-0.80
2019-01-19T16:25:19.838Z,-0.90
2019-01-19T16:28:06.759Z,-0.80
2019-01-19T16:31:04.450Z,-0.90
2019-01-19T16:33:44.896Z,-0.90
2019-01-19T16:36:22.910Z,-1.00
2019-01-19T16:39:04.605Z,-1.00
2019-01-19T16:41:36.445Z,-1.00
2019-01-19T16:44:28.166Z,-1.00
2019-01-19T16:47:17.355Z,-1.00
2019-01-19T16:50:06.323Z,-1.00
2019-01-19T16:52:44.619Z,-1.00
2019-01-19T16:55:25.077Z,-1.10
2019-01-19T16:58:12.024Z,-1.10
2019-01-19T17:00:56.768Z,-1.20
2019-01-19T17:03:36.106Z,-1.20
2019-01-19T17:06:32.949Z,-1.20
2019-01-19T17:09:32.937Z,-1.20
2019-01-19T17:12:20.791Z,-1.20
2019-01-19T17:15:21.647Z,-1.30
2019-01-19T17:18:05.878Z,-1.30
2019-01-19T17:21:00.212Z,-1.30
2019-01-19T17:23:45.511Z,-1.40
2019-01-19T17:26:22.065Z,-1.30
2019-01-19T17:28:56.268Z,-1.40
2019-01-19T17:31:30.514Z,-1.40
2019-01-19T17:34:26.284Z,-1.40
2019-01-19T17:36:58.326Z,-1.50
2019-01-19T17:39:49.658Z,-1.50
2019-01-19T17:42:21.417Z,-1.50
2019-01-19T17:45:32.090Z,-1.50
2019-01-19T17:48:23.714Z,-1.60
2019-01-19T17:51:01.416Z,-1.70
2019-01-19T17:53:59.692Z,-1.70
2019-01-19T17:56:31.555Z,-1.90
2019-01-19T17:59:04.538Z,-1.90
2019-01-19T18:02:02.741Z,-1.90
2019-01-19T18:04:53.721Z,-2.00
2019-01-19T18:07:46.478Z,-2.00
2019-01-19T18:10:41.268Z,-2.10
2019-01-19T18:13:33.302Z,-2.10
2019-01-19T18:16:17.147Z,-2.20
2019-01-19T18:19:03.390Z,-2.40
2019-01-19T18:21:49.763Z,-2.50
2019-01-19T18:24:42.376Z,-2.40
2019-01-19T18:27:20.239Z,-2.40
2019-01-19T18:29:55.019Z,-2.40
2019-01-19T18:32:41.562Z,-2.40
2019-01-19T18:35:38.444Z,-2.40
2019-01-19T18:38:22.029Z,-2.40
2019-01-19T18:41:10.556Z,-2.50
2019-01-19T18:43:48.665Z,-2.60
2019-01-19T18:46:22.985Z,-2.70
2019-01-19T18:48:58.613Z,-2.80
2019-01-19T18:51:34.212Z,-2.90
2019-01-19T18:54:12.022Z,-2.90
2019-01-19T18:56:52.013Z,-2.90
2019-01-19T18:59:29.497Z,-2.90
2019-01-19T19:02:15.409Z,-2.80
2019-01-19T19:05:23.397Z,-2.70
2019-01-19T19:08:10.133Z,-2.70
2019-01-19T19:10:58.675Z,-2.70
2019-01-19T19:13:36.170Z,-2.70
2019-01-19T19:16:36.581Z,-2.70
2019-01-19T19:19:17.161Z,-2.70
2019-01-19T19:22:00.945Z,-2.70
2019-01-19T19:24:50.839Z,-2.80
2019-01-19T19:27:28.698Z,-2.80
2019-01-19T19:30:01.127Z,-2.90
2019-01-19T19:33:07.750Z,-2.90
2019-01-19T19:35:53.475Z,-3.00
2019-01-19T19:39:10.531Z,-3.00
2019-01-19T19:41:21.715Z,-3.20
2019-01-19T19:44:05.643Z,-3.20
2019-01-19T19:46:53.705Z,-3.20
2019-01-19T19:49:34.289Z,-3.40
2019-01-19T19:52:03.748Z,-3.40
2019-01-19T19:54:40.131Z,-3.40
2019-01-19T19:59:57.355Z,-3.30
2019-01-19T20:02:26.773Z,-3.30
2019-01-19T20:04:55.670Z,-3.30
2019-01-19T20:07:25.880Z,-3.20
2019-01-19T20:09:57.134Z,-3.10
2019-01-19T20:12:27.614Z,-3.10
2019-01-19T20:14:59.987Z,-3.10
2019-01-19T20:17:30.365Z,-3.00
2019-01-19T20:20:02.938Z,-3.00
2019-01-19T20:22:32.340Z,-3.00
2019-01-19T20:25:08.376Z,-2.90
2019-01-19T20:27:37.396Z,-2.90
2019-01-19T20:30:15.442Z,-3.00
2019-01-19T20:32:51.869Z,-3.00
2019-01-19T20:35:21.270Z,-3.00
2019-01-19T20:37:50.361Z,-3.00
2019-01-19T20:40:24.569Z,-3.00
2019-01-19T20:42:51.778Z,-3.00
2019-01-19T20:45:26.993Z,-2.90
2019-01-19T20:47:56.328Z,-2.80
2019-01-19T20:50:26.920Z,-2.90
2019-01-19T20:52:58.432Z,-2.90
2019-01-19T20:55:27.346Z,-3.00
2019-01-19T20:57:56.436Z,-3.00
2019-01-19T21:00:27.202Z,-3.00
2019-01-19T21:02:58.976Z,-3.10
2019-01-19T21:05:30.537Z,-3.10
2019-01-19T21:07:59.691Z,-3.10
2019-01-19T21:10:31.861Z,-3.10
2019-01-19T21:13:08.524Z,-3.20
2019-01-19T21:15:37.419Z,-3.20
2019-01-19T21:18:06.202Z,-3.20
2019-01-19T21:20:35.173Z,-3.20
2019-01-19T21:23:04.185Z,-3.30
2019-01-19T21:25:33.077Z,-3.30
2019-01-19T21:28:03.194Z,-3.30
2019-01-19T21:30:37.855Z,-3.30
2019-01-19T21:33:11.008Z,-3.30
2019-01-19T21:35:41.371Z,-3.30
2019-01-19T21:38:10.341Z,-3.20
2019-01-19T21:40:39.434Z,-3.20
2019-01-19T21:43:11.796Z,-3.30
2019-01-19T21:45:47.139Z,-3.30
2019-01-19T21:48:16.033Z,-3.30
2019-01-19T21:50:45.705Z,-3.30
2019-01-19T21:53:15.751Z,-3.40
2019-01-19T21:55:44.859Z,-3.40
2019-01-19T21:58:18.044Z,-3.40
2019-01-19T22:00:47.957Z,-3.50
2019-01-19T22:03:17.878Z,-3.50
2019-01-19T22:05:49.711Z,-3.50
2019-01-19T22:08:17.583Z,-3.40
2019-01-19T22:10:46.759Z,-3.40
2019-01-19T22:13:19.865Z,-3.50
2019-01-19T22:15:51.850Z,-3.50
2019-01-19T22:18:21.148Z,-3.50
2019-01-19T22:21:00.699Z,-3.50
2019-01-19T22:23:29.695Z,-3.60
2019-01-19T22:26:01.848Z,-3.60
2019-01-19T22:28:34.016Z,-3.70
2019-01-19T22:31:04.141Z,-3.80
2019-01-19T22:33:34.253Z,-3.70
2019-01-19T22:36:07.417Z,-3.70
2019-01-19T22:38:45.145Z,-3.70
2019-01-19T22:41:14.249Z,-3.70
2019-01-19T22:43:43.747Z,-3.70
2019-01-19T22:46:12.738Z,-3.70
2019-01-19T22:48:43.990Z,-3.80
2019-01-19T22:51:12.880Z,-3.80
2019-01-19T22:53:42.260Z,-3.80
2019-01-19T22:56:11.270Z,-3.90
2019-01-19T22:58:40.062Z,-3.90
2019-01-19T23:01:14.775Z,-3.90
2019-01-19T23:03:43.680Z,-4.00
2019-01-19T23:06:15.641Z,-4.00
2019-01-19T23:08:48.250Z,-4.10
2019-01-19T23:11:17.110Z,-4.20
2019-01-19T23:13:47.475Z,-4.20
2019-01-19T23:16:17.053Z,-4.30
2019-01-19T23:18:45.928Z,-4.40
2019-01-19T23:21:14.820Z,-4.40
2019-01-19T23:23:43.708Z,-4.40
2019-01-19T23:26:14.444Z,-4.50
2019-01-19T23:28:43.538Z,-4.60
2019-01-19T23:31:12.840Z,-4.70
2019-01-19T23:33:41.734Z,-4.70
2019-01-19T23:36:10.499Z,-4.70
2019-01-19T23:38:40.846Z,-4.80
2019-01-19T23:41:10.035Z,-4.80
2019-01-19T23:43:38.814Z,-4.80
2019-01-19T23:46:10.895Z,-4.80
2019-01-19T23:48:39.769Z,-4.90
2019-01-19T23:51:11.747Z,-4.90
2019-01-19T23:53:46.083Z,-4.90
2019-01-19T23:56:17.321Z,-5.00
2019-01-19T23:58:46.117Z,-5.00
